Jump to content

Sign in to follow this  
Guest Jalok

Some problems with the v1.86 release

Recommended Posts

Guest Jalok

Hi Damian et al!First, thanks for the prompt patch releases for that NOAA thing! However, having made 5 trips, I noticed some problems with. Look at the screenshot. For your information, NOAA webpage gave me at the time screenshot was taken the following info:METAR: SBBR 281200Z 03001KT CAVOK 17/09 Q1023 TAF: SBBR 280900Z 281212 10005KT CAVOK BECMG 2224 00000KT TX26/18Z TN11/09ZSo, I don't know why I got that message "Cloud layer conflict in METAR, skipping transition...", nor the erratic winds aloft, with only two layers and 999 temperatures.Please, check it for us. TIA

Share this post


Link to post
Share on other sites
Guest Jalok

Don't know if this one has anything to do with the last message, but I have just got "METAR or TAF Report Syntax Error - Using last good data..."The current METAR and TAF (from NOAA webpages) are:SBCY 281500Z 00000KT 8000 SKC 30/14 Q1018 SBCY 280900Z 281212 34005KT CAVOK BECMG 2224 00000KT TX32/18Z TN16/09ZWhere's the syntax error?

Share this post


Link to post
Share on other sites

This part of the METAR should be part of the winds, but it is part of the sky condition:BECMG 2224 00000KTHope this helps,JimActiveSky Support

Share this post


Link to post
Share on other sites

Join the conversation

You can post now and register later. If you have an account, sign in now to post with your account.
Note: Your post will require moderator approval before it will be visible.

Guest
Reply to this topic...

×   Pasted as rich text.   Paste as plain text instead

  Only 75 emoji are allowed.

×   Your link has been automatically embedded.   Display as a link instead

×   Your previous content has been restored.   Clear editor

×   You cannot paste images directly. Upload or insert images from URL.

Sign in to follow this  

×
×
  • Create New...